Time;durP1;ratioP1;P1;durP2;ratioP2;P2;SDS_P1;SDS_P2;PMS_P1;PMS_P2;Temp;Humidity;BMP_temperature;BMP_pressure;BME280_temperature;BME280_humidity;BME280_pressure;Samples;Min_cycle;Max_cycle;Signal;HPM_P1;HPM_P2
2023/10/28 00:02:25;;;;;;;1.07;0.70;;;9.60;99.90;;;;;;5087445;28;20772;-72
2023/10/28 00:04:54;;;;;;;0.40;0.40;;;9.60;99.90;;;;;;5087995;28;20629;-72
2023/10/28 00:07:22;;;;;;;1.07;0.60;;;9.70;99.90;;;;;;5086976;28;21254;-72
2023/10/28 00:09:49;;;;;;;0.80;0.40;;;9.60;99.90;;;;;;5085239;28;20636;-72
2023/10/28 00:12:17;;;;;;;1.50;0.40;;;9.70;99.90;;;;;;5084525;28;20629;-72
2023/10/28 00:14:46;;;;;;;0.40;0.40;;;9.60;99.90;;;;;;5087262;28;20926;-72
2023/10/28 00:17:15;;;;;;;0.40;0.40;;;9.60;99.90;;;;;;5086740;28;20628;-72
2023/10/28 00:19:43;;;;;;;0.90;0.40;;;9.60;99.90;;;;;;5087417;28;20628;-72
2023/10/28 00:22:11;;;;;;;0.40;0.30;;;9.50;99.90;;;;;;5086000;28;20726;-71
2023/10/28 00:24:38;;;;;;;0.30;0.30;;;9.50;99.90;;;;;;5087286;28;20908;-71
2023/10/28 00:27:05;;;;;;;0.53;0.40;;;9.50;99.90;;;;;;5086341;28;20618;-71
2023/10/28 00:29:32;;;;;;;0.83;0.47;;;9.50;99.90;;;;;;5087132;28;20625;-72
2023/10/28 00:31:58;;;;;;;0.57;0.47;;;9.50;99.90;;;;;;5086185;28;21268;-72
2023/10/28 00:34:25;;;;;;;0.40;0.40;;;9.40;99.90;;;;;;5086812;28;20631;-72
2023/10/28 00:36:52;;;;;;;0.50;0.47;;;9.50;99.90;;;;;;5085566;28;21052;-72
2023/10/28 00:39:20;;;;;;;0.40;0.30;;;9.40;99.90;;;;;;5087359;28;20617;-71
2023/10/28 00:41:47;;;;;;;1.10;0.63;;;9.30;99.90;;;;;;5086673;28;20621;-72
2023/10/28 00:44:15;;;;;;;0.63;0.63;;;9.30;99.90;;;;;;5086350;28;21022;-71
2023/10/28 00:46:42;;;;;;;0.70;0.43;;;9.40;99.90;;;;;;5086383;28;21096;-72
2023/10/28 00:49:10;;;;;;;0.40;0.30;;;9.30;99.90;;;;;;5086402;28;20656;-71
2023/10/28 00:51:38;;;;;;;0.50;0.47;;;9.30;99.90;;;;;;5086565;28;20624;-71
2023/10/28 00:54:05;;;;;;;0.60;0.50;;;9.20;99.90;;;;;;5078141;28;20992;-71
2023/10/28 00:56:35;;;;;;;0.70;0.40;;;9.20;99.90;;;;;;5086804;28;20969;-72
2023/10/28 00:59:02;;;;;;;0.50;0.30;;;9.30;99.90;;;;;;5086807;28;20628;-71
2023/10/28 01:01:28;;;;;;;0.53;0.40;;;9.30;99.90;;;;;;5080375;28;20636;-71
2023/10/28 01:03:57;;;;;;;0.83;0.60;;;9.20;99.90;;;;;;5085958;28;20661;-71
2023/10/28 01:06:23;;;;;;;0.50;0.33;;;9.30;99.90;;;;;;5085852;28;20636;-71
2023/10/28 01:08:51;;;;;;;2.63;1.40;;;9.30;99.90;;;;;;5085901;28;21565;-72
2023/10/28 01:11:18;;;;;;;0.80;0.53;;;9.40;99.90;;;;;;5086292;28;20683;-71
2023/10/28 01:13:46;;;;;;;0.50;0.47;;;9.30;99.90;;;;;;5085918;28;20632;-71
2023/10/28 01:16:14;;;;;;;1.03;0.60;;;9.30;99.90;;;;;;5080169;28;20736;-71
2023/10/28 01:18:41;;;;;;;0.83;0.30;;;9.30;99.90;;;;;;5080574;28;20987;-71
2023/10/28 01:21:13;;;;;;;1.43;0.80;;;9.30;99.90;;;;;;5086703;28;20629;-71
2023/10/28 01:23:41;;;;;;;0.67;0.40;;;9.30;99.90;;;;;;5085961;28;20676;-71
2023/10/28 01:26:09;;;;;;;0.50;0.50;;;9.30;99.90;;;;;;5086005;28;20621;-73
2023/10/28 01:28:36;;;;;;;0.63;0.63;;;9.20;99.90;;;;;;5077149;28;20637;-72
2023/10/28 01:31:05;;;;;;;0.90;0.70;;;9.20;99.90;;;;;;5080159;28;21046;-73
2023/10/28 01:33:33;;;;;;;0.40;0.40;;;9.20;99.90;;;;;;5078025;28;20625;-72
2023/10/28 01:36:01;;;;;;;0.80;0.40;;;9.20;99.90;;;;;;5086247;28;20643;-73
2023/10/28 01:38:32;;;;;;;0.50;0.40;;;9.30;99.90;;;;;;5085994;28;21077;-73
2023/10/28 01:41:01;;;;;;;0.77;0.50;;;9.30;99.90;;;;;;5086272;28;20625;-73
2023/10/28 01:43:29;;;;;;;0.50;0.50;;;9.20;99.90;;;;;;5080289;28;20693;-73
2023/10/28 01:45:58;;;;;;;0.40;0.30;;;9.30;99.90;;;;;;5090393;28;20657;-73
2023/10/28 01:48:26;;;;;;;0.50;0.50;;;9.30;99.90;;;;;;5089745;28;20687;-73
2023/10/28 01:50:54;;;;;;;6.00;0.93;;;9.20;99.90;;;;;;5089964;28;20625;-73
2023/10/28 01:53:24;;;;;;;4.77;0.90;;;9.30;99.90;;;;;;5089909;28;20717;-73
2023/10/28 01:55:53;;;;;;;0.40;0.40;;;9.30;99.90;;;;;;5089626;28;20977;-73
2023/10/28 01:58:21;;;;;;;1.73;0.80;;;9.30;99.90;;;;;;5089714;28;20624;-73
2023/10/28 02:00:49;;;;;;;0.80;0.40;;;9.30;99.90;;;;;;5090144;28;20638;-73
2023/10/28 02:03:17;;;;;;;0.50;0.50;;;9.30;99.90;;;;;;5090062;28;20657;-73
2023/10/28 02:05:44;;;;;;;0.40;0.40;;;9.30;99.90;;;;;;5090167;28;20624;-73
2023/10/28 02:08:13;;;;;;;0.40;0.40;;;9.40;99.90;;;;;;5089313;28;20625;-73
2023/10/28 02:10:41;;;;;;;0.50;0.50;;;9.40;99.90;;;;;;5089417;28;20621;-73
2023/10/28 02:13:12;;;;;;;0.60;0.60;;;9.30;99.90;;;;;;5074406;28;20982;-73
2023/10/28 02:15:42;;;;;;;1.00;0.80;;;9.20;99.90;;;;;;5085536;28;20616;-73
2023/10/28 02:18:11;;;;;;;2.40;0.50;;;9.30;99.90;;;;;;5089162;28;21042;-73
2023/10/28 02:20:41;;;;;;;2.20;0.77;;;9.20;99.90;;;;;;5089591;28;20727;-72
2023/10/28 02:23:09;;;;;;;2.27;0.97;;;9.30;99.90;;;;;;5088785;28;20659;-73
2023/10/28 02:25:37;;;;;;;0.90;0.83;;;9.20;99.90;;;;;;5089898;28;20656;-73
2023/10/28 02:28:05;;;;;;;3.77;0.57;;;9.30;99.90;;;;;;5088589;28;20667;-72
2023/10/28 02:30:38;;;;;;;0.60;0.53;;;9.20;99.90;;;;;;5089526;28;20690;-73
2023/10/28 02:33:06;;;;;;;7.60;0.87;;;9.20;99.90;;;;;;5089096;28;20705;-73
2023/10/28 02:35:34;;;;;;;0.40;0.40;;;9.20;99.90;;;;;;5080350;28;20671;-73
2023/10/28 02:38:02;;;;;;;0.73;0.47;;;9.10;99.90;;;;;;5088750;28;20625;-73
2023/10/28 02:40:30;;;;;;;0.40;0.40;;;9.10;99.90;;;;;;5089633;28;20978;-73
2023/10/28 02:42:57;;;;;;;0.90;0.77;;;9.10;99.90;;;;;;5088290;28;20625;-73
2023/10/28 02:45:24;;;;;;;0.40;0.40;;;9.20;99.90;;;;;;5088889;28;21064;-73
2023/10/28 02:47:56;;;;;;;1.03;0.50;;;9.10;99.90;;;;;;5088394;28;20633;-73
2023/10/28 02:50:23;;;;;;;1.73;0.70;;;9.20;99.90;;;;;;5088583;28;20704;-72
2023/10/28 02:52:50;;;;;;;0.70;0.50;;;9.20;99.90;;;;;;5077747;28;20631;-73
2023/10/28 02:55:17;;;;;;;0.80;0.60;;;9.30;99.90;;;;;;5088144;28;20613;-73
2023/10/28 02:57:44;;;;;;;0.60;0.53;;;9.40;99.90;;;;;;5088127;28;20686;-73
2023/10/28 03:00:12;;;;;;;1.23;0.80;;;9.40;99.90;;;;;;5088858;28;21207;-73
2023/10/28 03:02:40;;;;;;;3.07;1.40;;;9.30;99.90;;;;;;5088132;28;20667;-73
2023/10/28 03:05:09;;;;;;;1.30;0.70;;;9.10;99.90;;;;;;5088139;28;21221;-73
2023/10/28 03:07:36;;;;;;;1.20;0.70;;;9.10;99.90;;;;;;5088121;28;21075;-73
2023/10/28 03:10:04;;;;;;;1.70;0.60;;;9.10;99.90;;;;;;5088316;28;21190;-73
2023/10/28 03:12:31;;;;;;;5.07;0.90;;;9.20;99.90;;;;;;5079868;28;20613;-72
2023/10/28 03:15:00;;;;;;;0.90;0.90;;;9.20;99.90;;;;;;5087945;28;20735;-72
2023/10/28 03:17:29;;;;;;;1.03;0.70;;;9.20;99.90;;;;;;5088289;28;20625;-72
2023/10/28 03:19:56;;;;;;;0.60;0.43;;;9.20;99.90;;;;;;5088227;28;20628;-72
2023/10/28 03:22:25;;;;;;;2.40;1.03;;;9.40;99.90;;;;;;5088438;28;20636;-72
2023/10/28 03:24:52;;;;;;;0.70;0.70;;;9.30;99.90;;;;;;5088199;28;21255;-72
2023/10/28 03:27:20;;;;;;;0.97;0.97;;;9.20;99.90;;;;;;5088102;28;21181;-72
2023/10/28 03:29:50;;;;;;;1.03;0.70;;;9.20;99.90;;;;;;5088253;28;20632;-72
2023/10/28 03:32:17;;;;;;;4.73;0.93;;;9.20;99.90;;;;;;5087777;28;20728;-72
2023/10/28 03:34:45;;;;;;;3.07;0.93;;;9.20;99.90;;;;;;5084607;28;20625;-72
2023/10/28 03:37:13;;;;;;;3.43;0.93;;;9.20;99.90;;;;;;5087639;28;20697;-72
2023/10/28 03:39:42;;;;;;;1.47;0.90;;;9.20;99.90;;;;;;5088699;28;20617;-72
2023/10/28 03:42:11;;;;;;;1.87;1.53;;;9.30;99.90;;;;;;5087360;28;20690;-72
2023/10/28 03:44:38;;;;;;;1.73;1.10;;;9.20;99.90;;;;;;5087843;28;20657;-72
2023/10/28 03:47:07;;;;;;;0.90;0.80;;;9.20;99.90;;;;;;5087581;28;20621;-72
2023/10/28 03:49:36;;;;;;;1.93;0.60;;;9.20;99.90;;;;;;5087929;28;20635;-72
2023/10/28 03:52:03;;;;;;;1.23;0.67;;;9.30;99.90;;;;;;5087721;28;20640;-72
2023/10/28 03:54:31;;;;;;;0.60;0.60;;;9.30;99.90;;;;;;5088032;28;20629;-72
2023/10/28 03:57:00;;;;;;;5.90;0.97;;;9.30;99.90;;;;;;5086574;28;20715;-72
2023/10/28 03:59:28;;;;;;;0.80;0.67;;;9.30;99.90;;;;;;5088007;28;20621;-72
2023/10/28 04:01:58;;;;;;;2.20;1.07;;;9.40;99.90;;;;;;5087533;28;20629;-72
2023/10/28 04:04:26;;;;;;;1.80;0.87;;;9.40;99.90;;;;;;5087514;28;20763;-72
2023/10/28 04:06:55;;;;;;;0.50;0.40;;;9.40;99.90;;;;;;5086434;28;20629;-72
2023/10/28 04:09:23;;;;;;;2.53;1.53;;;9.40;99.90;;;;;;5086367;28;21417;-72
2023/10/28 04:11:52;;;;;;;2.70;0.83;;;9.30;99.90;;;;;;5083182;28;20629;-72
2023/10/28 04:14:21;;;;;;;0.50;0.50;;;9.30;99.90;;;;;;5086377;28;21207;-72
2023/10/28 04:16:48;;;;;;;2.20;0.97;;;9.30;99.90;;;;;;5085649;28;20681;-72
2023/10/28 04:19:15;;;;;;;2.07;1.17;;;9.40;99.90;;;;;;5085102;28;20982;-71
2023/10/28 04:21:42;;;;;;;0.90;0.47;;;9.40;99.90;;;;;;5085949;28;20632;-71
2023/10/28 04:24:11;;;;;;;1.57;0.73;;;9.40;99.90;;;;;;5086431;28;21267;-71
2023/10/28 04:26:38;;;;;;;1.50;0.73;;;9.40;99.90;;;;;;5086396;28;21303;-71
2023/10/28 04:29:05;;;;;;;0.63;0.57;;;9.40;99.90;;;;;;5086671;28;20675;-71
2023/10/28 04:31:33;;;;;;;0.57;0.57;;;9.40;99.90;;;;;;5085270;28;20657;-71
2023/10/28 04:34:03;;;;;;;0.77;0.53;;;9.40;99.90;;;;;;5085408;28;20625;-71
2023/10/28 04:36:33;;;;;;;0.63;0.57;;;9.40;99.90;;;;;;5083713;28;20621;-71
2023/10/28 04:39:02;;;;;;;0.60;0.40;;;9.40;99.90;;;;;;5086803;28;20992;-71
2023/10/28 04:41:31;;;;;;;0.93;0.53;;;9.30;99.90;;;;;;5085895;28;20617;-71
2023/10/28 04:43:57;;;;;;;0.97;0.50;;;9.30;99.90;;;;;;5085013;28;20663;-71
2023/10/28 04:46:24;;;;;;;1.87;0.73;;;9.30;99.90;;;;;;5085169;28;20621;-71
2023/10/28 04:48:52;;;;;;;1.17;0.40;;;9.10;99.90;;;;;;5083630;28;20711;-71
2023/10/28 04:51:19;;;;;;;0.50;0.40;;;9.10;99.90;;;;;;5084184;28;20648;-71
2023/10/28 04:53:46;;;;;;;1.47;0.73;;;9.00;99.90;;;;;;5083428;28;20621;-71
2023/10/28 04:56:12;;;;;;;2.40;0.67;;;8.90;99.90;;;;;;5085206;28;20724;-71
2023/10/28 04:58:39;;;;;;;0.70;0.70;;;8.90;99.90;;;;;;5083404;28;20640;-71
2023/10/28 05:01:06;;;;;;;0.60;0.50;;;9.00;99.90;;;;;;5086272;28;20609;-71
2023/10/28 05:03:34;;;;;;;0.90;0.90;;;9.00;99.90;;;;;;5085509;28;20722;-71
2023/10/28 05:06:02;;;;;;;0.67;0.67;;;9.00;99.90;;;;;;5086156;28;20667;-71
2023/10/28 05:08:29;;;;;;;0.63;0.47;;;8.90;99.90;;;;;;5083339;28;21180;-71
2023/10/28 05:10:57;;;;;;;0.60;0.60;;;8.90;99.90;;;;;;5086544;28;21009;-71
2023/10/28 05:13:24;;;;;;;1.40;0.80;;;8.90;99.90;;;;;;5086410;28;20726;-71
2023/10/28 05:15:50;;;;;;;1.10;0.70;;;8.90;99.90;;;;;;5086433;28;20639;-71
2023/10/28 05:18:17;;;;;;;6.67;0.90;;;8.80;99.90;;;;;;5085136;28;20625;-71
2023/10/28 05:20:44;;;;;;;0.80;0.80;;;8.90;99.90;;;;;;5086457;28;20933;-71
2023/10/28 05:23:13;;;;;;;0.50;0.43;;;8.90;99.90;;;;;;5082819;28;20638;-71
2023/10/28 05:25:40;;;;;;;0.87;0.70;;;8.80;99.90;;;;;;5077761;28;20674;-71
2023/10/28 05:28:07;;;;;;;1.80;0.80;;;8.80;99.90;;;;;;5077399;28;20652;-71
2023/10/28 05:30:34;;;;;;;0.80;0.53;;;8.70;99.90;;;;;;5085709;28;21092;-71
2023/10/28 05:33:01;;;;;;;0.43;0.43;;;8.80;99.90;;;;;;5086372;28;20622;-71
2023/10/28 05:35:27;;;;;;;0.63;0.63;;;8.80;99.90;;;;;;5086498;28;20994;-71
2023/10/28 05:37:54;;;;;;;1.23;1.13;;;8.90;99.90;;;;;;5085621;28;20625;-72
2023/10/28 05:40:22;;;;;;;0.80;0.80;;;8.90;99.90;;;;;;5086401;28;20625;-72
2023/10/28 05:42:49;;;;;;;4.30;1.07;;;8.90;99.90;;;;;;5085532;28;20625;-72
2023/10/28 05:45:16;;;;;;;0.50;0.50;;;8.90;99.90;;;;;;5084816;28;20653;-72
2023/10/28 05:47:43;;;;;;;0.83;0.83;;;8.90;99.90;;;;;;5080259;28;20640;-71
2023/10/28 05:50:10;;;;;;;1.13;0.70;;;8.90;99.90;;;;;;5087388;28;20623;-73
2023/10/28 05:52:38;;;;;;;0.80;0.77;;;8.90;99.90;;;;;;5084577;28;20631;-74
2023/10/28 05:55:05;;;;;;;0.53;0.53;;;8.90;99.90;;;;;;5091842;28;20717;-74
2023/10/28 05:57:33;;;;;;;0.57;0.50;;;8.90;99.90;;;;;;5084269;28;20659;-71
2023/10/28 06:00:00;;;;;;;1.67;0.83;;;9.00;99.90;;;;;;5081049;28;21290;-73
2023/10/28 06:02:27;;;;;;;0.80;0.60;;;8.90;99.90;;;;;;5091120;28;20620;-73
2023/10/28 06:04:54;;;;;;;0.67;0.50;;;8.90;99.90;;;;;;5088011;28;20664;-73
2023/10/28 06:07:21;;;;;;;0.57;0.57;;;9.00;99.90;;;;;;5086991;28;20760;-74
2023/10/28 06:09:48;;;;;;;1.33;1.00;;;9.00;99.90;;;;;;5084497;28;20631;-74
2023/10/28 06:12:15;;;;;;;2.30;1.20;;;9.00;99.90;;;;;;5085041;28;20640;-74
2023/10/28 06:14:44;;;;;;;0.90;0.70;;;9.00;99.90;;;;;;5092629;28;20637;-74
2023/10/28 06:17:11;;;;;;;3.87;0.97;;;9.00;99.90;;;;;;5087412;28;20663;-74
2023/10/28 06:19:40;;;;;;;1.27;0.70;;;9.00;99.90;;;;;;5092733;28;20630;-74
2023/10/28 06:22:07;;;;;;;1.70;0.77;;;8.90;99.90;;;;;;5090473;28;20639;-74
2023/10/28 06:24:34;;;;;;;0.80;0.60;;;9.00;99.90;;;;;;5088420;28;20656;-74
2023/10/28 06:27:02;;;;;;;1.67;0.73;;;9.00;99.90;;;;;;5084472;28;21572;-75
2023/10/28 06:29:29;;;;;;;0.87;0.73;;;9.00;99.90;;;;;;5087613;28;20636;-72
2023/10/28 06:31:58;;;;;;;3.23;1.10;;;9.00;99.90;;;;;;5089171;28;21006;-72
2023/10/28 06:34:27;;;;;;;2.00;1.27;;;9.00;99.90;;;;;;5089230;28;20624;-72
2023/10/28 06:36:53;;;;;;;0.80;0.60;;;9.10;99.90;;;;;;5087765;28;20625;-71
2023/10/28 06:39:21;;;;;;;0.70;0.70;;;9.10;99.90;;;;;;5087994;28;20932;-72
2023/10/28 06:41:47;;;;;;;1.63;1.00;;;9.10;99.90;;;;;;5091756;28;21169;-72
2023/10/28 06:44:14;;;;;;;3.10;1.63;;;9.20;99.90;;;;;;5088533;28;20617;-72
2023/10/28 06:46:41;;;;;;;8.70;4.73;;;9.20;99.90;;;;;;5088508;28;20624;-72
2023/10/28 06:49:09;;;;;;;2.77;1.83;;;9.20;99.90;;;;;;5088076;28;20618;-73
2023/10/28 06:51:36;;;;;;;1.13;1.03;;;9.10;99.90;;;;;;5093265;28;20621;-72
2023/10/28 06:54:04;;;;;;;2.73;1.13;;;9.10;99.90;;;;;;5087724;28;20621;-72
2023/10/28 06:56:30;;;;;;;1.50;1.40;;;9.10;99.90;;;;;;5088773;28;20631;-72
2023/10/28 06:58:57;;;;;;;1.87;0.90;;;9.10;99.90;;;;;;5093972;28;20663;-72
2023/10/28 07:01:24;;;;;;;1.37;1.27;;;9.10;99.90;;;;;;5096716;28;20624;-72
2023/10/28 07:03:51;;;;;;;2.20;0.93;;;9.10;99.90;;;;;;5089648;28;20635;-72
2023/10/28 07:06:20;;;;;;;2.00;1.27;;;9.10;99.90;;;;;;5102397;28;20662;-72
2023/10/28 07:08:48;;;;;;;1.13;1.13;;;9.20;99.90;;;;;;5087561;28;20633;-73
2023/10/28 07:11:15;;;;;;;0.70;0.70;;;9.40;99.90;;;;;;5088229;28;20686;-73
2023/10/28 07:13:41;;;;;;;1.40;1.30;;;9.50;99.90;;;;;;5087861;28;20653;-72
2023/10/28 07:16:08;;;;;;;2.57;1.23;;;9.40;99.90;;;;;;5094736;28;20649;-73
2023/10/28 07:18:35;;;;;;;6.30;1.20;;;9.60;99.90;;;;;;5093959;28;20662;-72
2023/10/28 07:21:04;;;;;;;1.17;1.07;;;9.60;99.90;;;;;;5095815;28;20658;-73
2023/10/28 07:23:38;;;;;;;2.83;1.00;;;9.60;99.90;;;;;;5087400;28;21165;-72
2023/10/28 07:26:05;;;;;;;1.17;1.03;;;9.80;99.90;;;;;;5087602;28;21131;-73
2023/10/28 07:28:33;;;;;;;1.10;1.10;;;9.80;99.90;;;;;;5087558;28;21529;-70
2023/10/28 07:31:01;;;;;;;0.90;0.90;;;10.00;99.90;;;;;;5090022;28;20694;-70
2023/10/28 07:33:28;;;;;;;0.97;0.87;;;10.10;99.90;;;;;;5087283;28;20636;-71
2023/10/28 07:35:54;;;;;;;2.20;0.97;;;10.10;99.90;;;;;;5089214;28;20620;-72
2023/10/28 07:38:22;;;;;;;2.00;0.80;;;10.10;99.90;;;;;;5091118;28;20983;-71
2023/10/28 07:40:50;;;;;;;1.37;1.00;;;10.00;99.90;;;;;;5090908;28;20621;-71
2023/10/28 07:43:18;;;;;;;1.33;0.73;;;10.00;99.90;;;;;;5093817;28;20949;-73
2023/10/28 07:45:47;;;;;;;1.63;1.00;;;9.90;99.90;;;;;;5088968;28;20665;-72
2023/10/28 07:48:23;;;;;;;1.00;0.97;;;10.00;99.90;;;;;;5089657;28;20877;-72
2023/10/28 07:50:51;;;;;;;1.33;1.13;;;10.00;99.90;;;;;;5093650;28;20625;-72
2023/10/28 07:53:18;;;;;;;0.60;0.47;;;10.00;99.90;;;;;;5088456;28;20629;-72
2023/10/28 07:55:45;;;;;;;0.60;0.50;;;10.20;99.90;;;;;;5087274;28;20629;-71
2023/10/28 07:58:13;;;;;;;1.67;0.70;;;10.20;99.90;;;;;;5087465;28;20628;-71
2023/10/28 08:00:39;;;;;;;2.00;0.60;;;10.40;99.90;;;;;;5086580;28;20620;-71
2023/10/28 08:03:06;;;;;;;1.23;0.83;;;10.60;99.90;;;;;;5088405;28;20715;-71
2023/10/28 08:05:33;;;;;;;0.60;0.50;;;10.70;99.90;;;;;;5093004;28;20672;-72
2023/10/28 08:08:00;;;;;;;0.93;0.60;;;10.80;99.90;;;;;;5084869;28;20621;-72
2023/10/28 08:10:27;;;;;;;1.63;1.10;;;10.80;99.90;;;;;;5089451;28;20620;-71
2023/10/28 08:12:54;;;;;;;1.63;0.57;;;10.90;99.90;;;;;;5088718;28;20674;-71
2023/10/28 08:15:23;;;;;;;0.67;0.60;;;11.20;99.90;;;;;;5087095;28;20724;-71
2023/10/28 08:17:50;;;;;;;1.43;1.03;;;11.20;99.90;;;;;;5093870;28;20621;-72
2023/10/28 08:20:17;;;;;;;0.53;0.53;;;11.20;99.90;;;;;;5093022;28;20682;-72
2023/10/28 08:22:44;;;;;;;0.63;0.60;;;11.40;99.90;;;;;;5094161;28;21141;-72
2023/10/28 08:25:15;;;;;;;0.90;0.90;;;11.50;99.90;;;;;;5086946;28;20664;-72
2023/10/28 08:27:42;;;;;;;0.77;0.77;;;11.60;99.90;;;;;;5090533;28;20710;-72
2023/10/28 08:30:10;;;;;;;1.20;1.00;;;11.70;99.90;;;;;;5089763;28;20645;-72
2023/10/28 08:32:39;;;;;;;0.50;0.50;;;11.70;99.90;;;;;;5091862;28;20625;-72
2023/10/28 08:35:06;;;;;;;1.07;0.83;;;12.00;99.90;;;;;;5088776;28;20624;-72
2023/10/28 08:37:33;;;;;;;2.00;0.80;;;12.00;99.90;;;;;;5092517;28;20643;-72
2023/10/28 08:40:00;;;;;;;1.33;0.50;;;12.10;99.90;;;;;;5088211;28;21013;-72
2023/10/28 08:42:27;;;;;;;0.83;0.60;;;12.20;99.90;;;;;;5094538;28;21715;-72
2023/10/28 08:44:55;;;;;;;0.77;0.30;;;12.30;99.90;;;;;;5092677;28;20634;-72
2023/10/28 08:47:24;;;;;;;2.90;1.10;;;12.30;99.90;;;;;;5085719;28;20628;-71
2023/10/28 08:49:55;;;;;;;0.90;0.87;;;12.40;99.90;;;;;;5087296;28;20730;-71
2023/10/28 08:52:23;;;;;;;0.80;0.67;;;12.40;99.80;;;;;;5090908;28;20732;-71
2023/10/28 08:54:50;;;;;;;3.70;0.70;;;12.40;99.60;;;;;;5086264;28;20636;-71
2023/10/28 08:57:18;;;;;;;3.47;0.87;;;12.30;99.60;;;;;;5087770;28;20628;-71
2023/10/28 08:59:45;;;;;;;5.50;1.23;;;12.30;99.50;;;;;;5096467;28;20635;-71
2023/10/28 09:02:13;;;;;;;1.03;0.93;;;12.40;99.30;;;;;;5098092;28;20662;-71
2023/10/28 09:04:40;;;;;;;0.87;0.70;;;12.30;99.40;;;;;;5095136;28;20629;-71
2023/10/28 09:07:08;;;;;;;1.57;0.97;;;12.30;99.80;;;;;;5097971;28;20996;-71
2023/10/28 09:09:37;;;;;;;1.10;0.90;;;12.30;99.80;;;;;;5085430;28;20768;-69
2023/10/28 09:12:07;;;;;;;2.80;0.90;;;12.30;99.50;;;;;;5081904;28;20724;-71
2023/10/28 09:14:33;;;;;;;0.97;0.70;;;12.30;99.70;;;;;;5089666;28;20652;-71
2023/10/28 09:17:02;;;;;;;0.50;0.50;;;12.30;99.90;;;;;;5090588;28;20617;-71
2023/10/28 09:19:30;;;;;;;1.27;0.60;;;12.40;99.90;;;;;;5093537;28;20991;-69
2023/10/28 09:21:58;;;;;;;1.10;0.73;;;12.50;99.90;;;;;;5093707;28;20719;-70
2023/10/28 09:24:26;;;;;;;3.43;0.80;;;12.70;99.70;;;;;;5104664;28;20628;-70
2023/10/28 09:26:53;;;;;;;0.90;0.80;;;12.80;99.20;;;;;;5089366;28;20687;-70
2023/10/28 09:29:25;;;;;;;0.97;0.67;;;12.80;99.40;;;;;;5088649;28;20989;-70
2023/10/28 09:31:52;;;;;;;1.30;0.80;;;12.90;98.40;;;;;;5092000;28;20621;-70
2023/10/28 09:34:19;;;;;;;2.87;0.60;;;12.80;98.60;;;;;;5083566;28;20629;-70
2023/10/28 09:36:46;;;;;;;1.70;0.50;;;12.80;98.50;;;;;;5086334;28;21193;-70
2023/10/28 09:39:14;;;;;;;0.67;0.67;;;12.70;98.10;;;;;;5083798;28;20637;-70
2023/10/28 09:41:42;;;;;;;1.93;0.90;;;12.70;97.40;;;;;;5088724;28;21020;-70
2023/10/28 09:44:11;;;;;;;0.73;0.70;;;12.70;98.40;;;;;;5085779;28;21152;-69
2023/10/28 09:46:41;;;;;;;2.57;0.63;;;12.70;98.00;;;;;;5084592;28;21072;-71
2023/10/28 09:49:11;;;;;;;0.70;0.50;;;12.90;97.80;;;;;;5085392;28;20721;-69
2023/10/28 09:51:40;;;;;;;2.47;0.60;;;13.00;97.40;;;;;;5085699;28;20653;-69
2023/10/28 09:54:11;;;;;;;0.80;0.67;;;13.00;97.70;;;;;;5085375;28;20720;-69
2023/10/28 09:56:43;;;;;;;1.17;0.50;;;13.20;96.90;;;;;;5086793;28;21058;-70
2023/10/28 09:59:18;;;;;;;0.77;0.53;;;13.20;97.20;;;;;;5093769;28;20628;-70
2023/10/28 10:01:55;;;;;;;1.13;0.80;;;13.20;97.30;;;;;;5092639;28;20636;-70
2023/10/28 10:04:34;;;;;;;0.70;0.60;;;13.20;97.70;;;;;;5096398;28;20630;-69
2023/10/28 10:07:01;;;;;;;1.57;0.60;;;13.30;97.60;;;;;;5090350;28;20668;-69
2023/10/28 10:09:28;;;;;;;1.07;0.77;;;13.40;97.20;;;;;;5090609;28;20728;-70
2023/10/28 10:11:57;;;;;;;1.53;0.60;;;13.40;97.30;;;;;;5091300;28;20636;-75
2023/10/28 10:14:31;;;;;;;0.80;0.57;;;13.60;96.80;;;;;;5098121;28;20645;-76
2023/10/28 10:17:03;;;;;;;2.28;1.00;;;13.60;97.10;;;;;;5087695;28;20945;-74
2023/10/28 10:19:33;;;;;;;5.03;1.03;;;13.60;96.50;;;;;;5091803;28;21197;-74
2023/10/28 10:22:07;;;;;;;3.13;0.87;;;13.70;95.80;;;;;;5088702;28;20629;-74
2023/10/28 10:24:34;;;;;;;1.43;0.70;;;13.80;95.90;;;;;;5099088;28;20728;-74
2023/10/28 10:27:03;;;;;;;1.63;0.80;;;13.80;96.30;;;;;;5089222;28;21340;-74
2023/10/28 10:29:42;;;;;;;1.77;1.00;;;13.80;96.00;;;;;;5095900;28;20712;-74
2023/10/28 10:32:16;;;;;;;1.53;1.07;;;13.90;96.30;;;;;;5089291;28;20630;-74
2023/10/28 10:34:45;;;;;;;1.80;1.07;;;13.90;95.40;;;;;;5087776;28;20626;-74
2023/10/28 10:37:22;;;;;;;1.57;1.47;;;13.90;95.60;;;;;;5084636;28;21189;-74
2023/10/28 10:39:49;;;;;;;2.67;1.00;;;14.10;95.50;;;;;;5097292;28;20625;-74
2023/10/28 10:42:16;;;;;;;1.77;1.10;;;14.10;95.50;;;;;;5083076;28;20631;-74
2023/10/28 10:44:44;;;;;;;0.80;0.57;;;14.20;95.30;;;;;;5088556;28;20961;-74
2023/10/28 10:47:12;;;;;;;1.37;0.63;;;14.10;94.90;;;;;;5087606;28;21069;-74
2023/10/28 10:49:40;;;;;;;1.23;1.10;;;14.20;95.30;;;;;;5088934;28;20664;-74
2023/10/28 10:52:08;;;;;;;1.70;1.07;;;14.30;95.00;;;;;;5098167;28;20648;-74
2023/10/28 10:54:36;;;;;;;2.80;0.90;;;14.30;95.00;;;;;;5094962;28;20645;-74
2023/10/28 10:57:04;;;;;;;1.90;0.80;;;14.50;94.10;;;;;;5084571;28;20678;-74
2023/10/28 10:59:32;;;;;;;3.40;1.10;;;14.50;94.30;;;;;;5092571;28;20622;-75
2023/10/28 11:02:01;;;;;;;2.93;0.80;;;14.60;94.30;;;;;;5090102;28;21282;-74
2023/10/28 11:04:29;;;;;;;1.23;0.80;;;14.60;94.50;;;;;;5097667;28;20619;-75
2023/10/28 11:06:56;;;;;;;2.93;0.70;;;14.40;93.90;;;;;;5087901;28;20677;-75
2023/10/28 11:09:23;;;;;;;0.83;0.60;;;14.40;94.10;;;;;;5088414;28;20621;-74
2023/10/28 11:11:50;;;;;;;0.80;0.60;;;14.20;93.80;;;;;;5088739;28;20643;-75
2023/10/28 11:14:17;;;;;;;0.60;0.40;;;14.20;94.30;;;;;;5085556;28;20639;-75
2023/10/28 11:16:45;;;;;;;2.40;1.10;;;14.10;94.50;;;;;;5086695;28;20678;-75
2023/10/28 11:19:13;;;;;;;2.50;0.90;;;14.00;95.10;;;;;;5090211;28;20623;-74
2023/10/28 11:21:40;;;;;;;4.03;0.77;;;14.00;95.00;;;;;;5096120;28;20631;-75
2023/10/28 11:24:08;;;;;;;1.07;0.70;;;14.00;94.50;;;;;;5089879;28;20626;-73
2023/10/28 11:26:36;;;;;;;2.00;0.73;;;14.10;95.10;;;;;;5101542;28;20679;-75
2023/10/28 11:29:04;;;;;;;1.30;0.73;;;14.00;95.10;;;;;;5086267;28;20654;-74
2023/10/28 11:31:31;;;;;;;2.10;1.00;;;14.00;95.80;;;;;;5092157;28;20627;-73
2023/10/28 11:33:59;;;;;;;1.20;1.00;;;14.10;95.60;;;;;;5088193;28;20625;-73
2023/10/28 11:36:30;;;;;;;0.93;0.90;;;14.10;94.80;;;;;;5087792;28;21214;-72
2023/10/28 11:38:57;;;;;;;1.57;0.60;;;14.00;94.60;;;;;;5086947;28;20744;-73
2023/10/28 11:41:24;;;;;;;2.00;0.77;;;14.00;94.90;;;;;;5086035;28;20764;-74
2023/10/28 11:43:52;;;;;;;1.37;0.87;;;14.00;94.90;;;;;;5092522;28;20656;-74
2023/10/28 11:46:20;;;;;;;0.60;0.50;;;13.90;94.90;;;;;;5085795;28;21119;-73
2023/10/28 11:48:47;;;;;;;0.97;0.90;;;13.90;94.50;;;;;;5087162;28;20680;-72
2023/10/28 11:51:14;;;;;;;0.90;0.80;;;14.00;94.70;;;;;;5094003;28;20635;-74
2023/10/28 11:53:47;;;;;;;1.37;1.03;;;13.90;94.90;;;;;;5092776;28;20628;-73
2023/10/28 11:56:15;;;;;;;0.70;0.70;;;13.90;94.60;;;;;;5087042;28;21412;-72
2023/10/28 11:58:43;;;;;;;1.30;1.20;;;13.80;94.60;;;;;;5095261;28;20636;-74
2023/10/28 12:01:09;;;;;;;2.03;0.70;;;13.70;94.70;;;;;;5087211;28;20631;-72
2023/10/28 12:03:36;;;;;;;1.33;0.83;;;13.80;95.20;;;;;;5097379;28;20632;-73
2023/10/28 12:06:04;;;;;;;2.83;0.80;;;13.70;94.90;;;;;;5082940;28;20625;-72
2023/10/28 12:08:31;;;;;;;3.97;1.00;;;13.60;96.30;;;;;;5087221;28;20625;-73
2023/10/28 12:10:59;;;;;;;2.27;1.40;;;13.50;97.50;;;;;;5087186;28;20635;-73
2023/10/28 12:13:27;;;;;;;0.50;0.50;;;13.30;98.90;;;;;;5097461;28;20639;-72
2023/10/28 12:15:54;;;;;;;0.80;0.80;;;13.20;99.20;;;;;;5092411;28;21174;-74
2023/10/28 12:18:21;;;;;;;2.00;1.40;;;13.20;99.90;;;;;;5089161;28;20633;-77
2023/10/28 12:20:49;;;;;;;2.70;2.20;;;13.20;98.10;;;;;;5092308;28;20736;-76
2023/10/28 12:23:16;;;;;;;1.73;0.80;;;13.10;98.90;;;;;;5104877;28;20624;-76
2023/10/28 12:25:43;;;;;;;0.67;0.67;;;13.10;99.80;;;;;;5094190;28;20640;-76
2023/10/28 12:28:11;;;;;;;2.70;1.60;;;13.10;99.90;;;;;;5086737;28;20689;-75
2023/10/28 12:30:38;;;;;;;2.00;1.20;;;13.20;99.90;;;;;;5088620;28;20631;-75
2023/10/28 12:33:04;;;;;;;0.93;0.90;;;13.30;99.20;;;;;;5091131;28;20625;-75
2023/10/28 12:35:31;;;;;;;0.93;0.93;;;13.40;99.20;;;;;;5088260;28;20625;-76
2023/10/28 12:37:58;;;;;;;2.60;1.10;;;13.50;98.60;;;;;;5087710;28;21061;-75
2023/10/28 12:40:26;;;;;;;1.97;0.90;;;13.60;97.80;;;;;;5087687;28;20618;-75
2023/10/28 12:42:53;;;;;;;1.23;1.00;;;13.60;97.20;;;;;;5090401;28;21185;-75
2023/10/28 12:45:21;;;;;;;3.20;1.10;;;13.50;97.10;;;;;;5090102;28;20986;-75
2023/10/28 12:47:49;;;;;;;0.90;0.90;;;13.60;98.40;;;;;;5088795;28;20750;-76
2023/10/28 12:50:17;;;;;;;3.10;1.20;;;13.60;99.90;;;;;;5087618;28;20747;-76
2023/10/28 12:52:44;;;;;;;2.40;0.93;;;13.60;99.90;;;;;;5091350;28;20633;-75
2023/10/28 12:55:11;;;;;;;7.50;1.70;;;13.50;97.70;;;;;;5095212;28;21107;-74
2023/10/28 12:57:38;;;;;;;1.10;1.00;;;13.40;97.80;;;;;;5093108;28;20838;-73